Chincha Alta, Peru
Current Conditions -  °F | °C
As of 8:00 PM on Saturday 22 Nov 2014 (Local Time) from SPSO Reporting Station
Few Clouds Few Clouds  
Wind Chill: 66°   Ceiling: Unl
Heat Index: 66°   Visibility: 6mi
Dew Point: 59°   Wind: 14mph
Humidity: 78%   Direction: 210°SSW
Pressure: 29.91"   Gusts: NA
Location:  13.42°S, 76.14°W
Report Text: SPSO 230100Z 21012KT 9999 FEW006 19/15 Q1013 RMK PP000
Loading
Personal Weather Stations






























Interactive Weather Map New forecast layout! Learn more

10-Day Weather Forecast

Advertisements
Track Severe Weather on mobile